sensor_id;sensor_type;location;lat;lon;timestamp;P1;durP1;ratioP1;P2;durP2;ratioP2
73154;SDS011;66341;52.418;7.382;2023-05-07T00:02:14;1.50;;;1.50;;
73154;SDS011;66341;52.418;7.382;2023-05-07T00:04:41;1.59;;;1.59;;
73154;SDS011;66341;52.418;7.382;2023-05-07T00:07:06;1.51;;;1.51;;
73154;SDS011;66341;52.418;7.382;2023-05-07T00:09:32;1.50;;;1.50;;
73154;SDS011;66341;52.418;7.382;2023-05-07T00:11:58;1.44;;;1.44;;
73154;SDS011;66341;52.418;7.382;2023-05-07T00:14:23;1.59;;;1.59;;
73154;SDS011;66341;52.418;7.382;2023-05-07T00:16:50;1.62;;;1.62;;
73154;SDS011;66341;52.418;7.382;2023-05-07T00:19:15;1.59;;;1.59;;
73154;SDS011;66341;52.418;7.382;2023-05-07T00:21:41;1.60;;;1.60;;
73154;SDS011;66341;52.418;7.382;2023-05-07T00:24:07;1.59;;;1.59;;
73154;SDS011;66341;52.418;7.382;2023-05-07T00:26:32;1.77;;;1.77;;
73154;SDS011;66341;52.418;7.382;2023-05-07T00:28:59;1.75;;;1.75;;
73154;SDS011;66341;52.418;7.382;2023-05-07T00:31:24;1.54;;;1.54;;
73154;SDS011;66341;52.418;7.382;2023-05-07T00:33:50;1.56;;;1.56;;
73154;SDS011;66341;52.418;7.382;2023-05-07T00:36:15;1.77;;;1.77;;
73154;SDS011;66341;52.418;7.382;2023-05-07T00:38:41;1.81;;;1.81;;
73154;SDS011;66341;52.418;7.382;2023-05-07T00:41:07;1.71;;;1.71;;
73154;SDS011;66341;52.418;7.382;2023-05-07T00:43:32;1.73;;;1.73;;
73154;SDS011;66341;52.418;7.382;2023-05-07T00:45:58;1.90;;;1.90;;
73154;SDS011;66341;52.418;7.382;2023-05-07T00:48:24;1.79;;;1.79;;
73154;SDS011;66341;52.418;7.382;2023-05-07T00:50:51;1.82;;;1.82;;
73154;SDS011;66341;52.418;7.382;2023-05-07T00:53:17;1.85;;;1.85;;
73154;SDS011;66341;52.418;7.382;2023-05-07T00:55:43;1.71;;;1.71;;
73154;SDS011;66341;52.418;7.382;2023-05-07T00:58:08;1.84;;;1.84;;
73154;SDS011;66341;52.418;7.382;2023-05-07T01:00:34;1.74;;;1.74;;
73154;SDS011;66341;52.418;7.382;2023-05-07T01:03:01;1.75;;;1.75;;
73154;SDS011;66341;52.418;7.382;2023-05-07T01:05:26;1.83;;;1.83;;
73154;SDS011;66341;52.418;7.382;2023-05-07T01:07:54;1.88;;;1.88;;
73154;SDS011;66341;52.418;7.382;2023-05-07T01:10:21;1.78;;;1.78;;
73154;SDS011;66341;52.418;7.382;2023-05-07T01:12:47;1.73;;;1.73;;
73154;SDS011;66341;52.418;7.382;2023-05-07T01:15:15;2.01;;;2.01;;
73154;SDS011;66341;52.418;7.382;2023-05-07T01:17:41;1.84;;;1.84;;
73154;SDS011;66341;52.418;7.382;2023-05-07T01:20:08;1.77;;;1.77;;
73154;SDS011;66341;52.418;7.382;2023-05-07T01:22:35;1.78;;;1.78;;
73154;SDS011;66341;52.418;7.382;2023-05-07T01:25:02;1.71;;;1.71;;
73154;SDS011;66341;52.418;7.382;2023-05-07T01:27:28;1.85;;;1.85;;
73154;SDS011;66341;52.418;7.382;2023-05-07T01:29:54;1.84;;;1.84;;
73154;SDS011;66341;52.418;7.382;2023-05-07T01:32:27;1.74;;;1.74;;
73154;SDS011;66341;52.418;7.382;2023-05-07T01:34:54;1.76;;;1.76;;
73154;SDS011;66341;52.418;7.382;2023-05-07T01:37:22;1.93;;;1.93;;
73154;SDS011;66341;52.418;7.382;2023-05-07T01:39:49;1.91;;;1.91;;
73154;SDS011;66341;52.418;7.382;2023-05-07T01:42:14;1.86;;;1.86;;
73154;SDS011;66341;52.418;7.382;2023-05-07T01:44:40;1.85;;;1.85;;
73154;SDS011;66341;52.418;7.382;2023-05-07T01:47:06;1.78;;;1.78;;
73154;SDS011;66341;52.418;7.382;2023-05-07T01:49:31;1.98;;;1.98;;
73154;SDS011;66341;52.418;7.382;2023-05-07T01:51:57;1.83;;;1.83;;
73154;SDS011;66341;52.418;7.382;2023-05-07T01:54:26;1.89;;;1.89;;
73154;SDS011;66341;52.418;7.382;2023-05-07T01:56:56;1.90;;;1.90;;
73154;SDS011;66341;52.418;7.382;2023-05-07T01:59:22;1.96;;;1.96;;
73154;SDS011;66341;52.418;7.382;2023-05-07T02:01:48;1.95;;;1.95;;
73154;SDS011;66341;52.418;7.382;2023-05-07T02:04:13;1.96;;;1.96;;
73154;SDS011;66341;52.418;7.382;2023-05-07T02:06:39;2.09;;;2.09;;
73154;SDS011;66341;52.418;7.382;2023-05-07T02:09:05;2.18;;;2.18;;
73154;SDS011;66341;52.418;7.382;2023-05-07T02:11:30;2.13;;;2.13;;
73154;SDS011;66341;52.418;7.382;2023-05-07T02:13:56;2.03;;;2.03;;
73154;SDS011;66341;52.418;7.382;2023-05-07T02:16:22;2.21;;;2.21;;
73154;SDS011;66341;52.418;7.382;2023-05-07T02:18:48;2.08;;;2.08;;
73154;SDS011;66341;52.418;7.382;2023-05-07T02:21:14;1.98;;;1.98;;
73154;SDS011;66341;52.418;7.382;2023-05-07T02:23:40;2.28;;;2.28;;
73154;SDS011;66341;52.418;7.382;2023-05-07T02:26:06;2.15;;;2.15;;
73154;SDS011;66341;52.418;7.382;2023-05-07T02:28:32;2.21;;;2.21;;
73154;SDS011;66341;52.418;7.382;2023-05-07T02:31:02;2.42;;;2.42;;
73154;SDS011;66341;52.418;7.382;2023-05-07T02:33:27;2.23;;;2.23;;
73154;SDS011;66341;52.418;7.382;2023-05-07T02:35:53;2.38;;;2.38;;
73154;SDS011;66341;52.418;7.382;2023-05-07T02:38:19;2.36;;;2.36;;
73154;SDS011;66341;52.418;7.382;2023-05-07T02:40:44;2.21;;;2.21;;
73154;SDS011;66341;52.418;7.382;2023-05-07T02:43:10;2.17;;;2.17;;
73154;SDS011;66341;52.418;7.382;2023-05-07T02:45:36;2.51;;;2.51;;
73154;SDS011;66341;52.418;7.382;2023-05-07T02:48:03;2.24;;;2.24;;
73154;SDS011;66341;52.418;7.382;2023-05-07T02:50:29;2.42;;;2.42;;
73154;SDS011;66341;52.418;7.382;2023-05-07T02:52:54;2.20;;;2.20;;
73154;SDS011;66341;52.418;7.382;2023-05-07T02:55:20;2.32;;;2.32;;
73154;SDS011;66341;52.418;7.382;2023-05-07T02:57:46;2.51;;;2.51;;
73154;SDS011;66341;52.418;7.382;2023-05-07T03:02:41;2.13;;;2.13;;
73154;SDS011;66341;52.418;7.382;2023-05-07T03:05:07;2.41;;;2.41;;
73154;SDS011;66341;52.418;7.382;2023-05-07T03:07:34;2.50;;;2.50;;
73154;SDS011;66341;52.418;7.382;2023-05-07T03:09:59;2.56;;;2.56;;
73154;SDS011;66341;52.418;7.382;2023-05-07T03:12:25;2.59;;;2.59;;
73154;SDS011;66341;52.418;7.382;2023-05-07T03:14:51;2.36;;;2.36;;
73154;SDS011;66341;52.418;7.382;2023-05-07T03:17:16;2.40;;;2.40;;
73154;SDS011;66341;52.418;7.382;2023-05-07T03:19:42;2.59;;;2.59;;
73154;SDS011;66341;52.418;7.382;2023-05-07T03:22:08;2.52;;;2.52;;
73154;SDS011;66341;52.418;7.382;2023-05-07T03:24:33;2.34;;;2.34;;
73154;SDS011;66341;52.418;7.382;2023-05-07T03:26:59;2.57;;;2.57;;
73154;SDS011;66341;52.418;7.382;2023-05-07T03:29:26;2.75;;;2.75;;
73154;SDS011;66341;52.418;7.382;2023-05-07T03:31:52;2.53;;;2.53;;
73154;SDS011;66341;52.418;7.382;2023-05-07T03:34:17;2.58;;;2.58;;
73154;SDS011;66341;52.418;7.382;2023-05-07T03:36:50;2.48;;;2.48;;
73154;SDS011;66341;52.418;7.382;2023-05-07T03:39:16;2.63;;;2.63;;
73154;SDS011;66341;52.418;7.382;2023-05-07T03:41:42;2.69;;;2.69;;
73154;SDS011;66341;52.418;7.382;2023-05-07T03:44:07;2.59;;;2.59;;
73154;SDS011;66341;52.418;7.382;2023-05-07T03:46:33;2.81;;;2.81;;
73154;SDS011;66341;52.418;7.382;2023-05-07T03:48:59;2.79;;;2.79;;
73154;SDS011;66341;52.418;7.382;2023-05-07T03:51:25;2.92;;;2.92;;
73154;SDS011;66341;52.418;7.382;2023-05-07T03:53:51;2.70;;;2.70;;
73154;SDS011;66341;52.418;7.382;2023-05-07T03:56:20;2.80;;;2.80;;
73154;SDS011;66341;52.418;7.382;2023-05-07T03:58:47;2.94;;;2.94;;
73154;SDS011;66341;52.418;7.382;2023-05-07T04:01:12;2.85;;;2.85;;
73154;SDS011;66341;52.418;7.382;2023-05-07T04:03:38;2.87;;;2.87;;
73154;SDS011;66341;52.418;7.382;2023-05-07T04:06:03;2.82;;;2.82;;
73154;SDS011;66341;52.418;7.382;2023-05-07T04:08:29;2.87;;;2.87;;
73154;SDS011;66341;52.418;7.382;2023-05-07T04:10:58;2.91;;;2.91;;
73154;SDS011;66341;52.418;7.382;2023-05-07T04:13:24;2.86;;;2.86;;
73154;SDS011;66341;52.418;7.382;2023-05-07T04:15:51;2.83;;;2.83;;
73154;SDS011;66341;52.418;7.382;2023-05-07T04:18:17;2.72;;;2.72;;
73154;SDS011;66341;52.418;7.382;2023-05-07T04:20:43;2.75;;;2.75;;
73154;SDS011;66341;52.418;7.382;2023-05-07T04:23:08;2.66;;;2.66;;
73154;SDS011;66341;52.418;7.382;2023-05-07T04:25:34;2.82;;;2.82;;
73154;SDS011;66341;52.418;7.382;2023-05-07T04:28:00;2.59;;;2.59;;
73154;SDS011;66341;52.418;7.382;2023-05-07T04:30:25;2.67;;;2.67;;
73154;SDS011;66341;52.418;7.382;2023-05-07T04:32:51;2.85;;;2.85;;
73154;SDS011;66341;52.418;7.382;2023-05-07T04:35:18;3.05;;;3.05;;
73154;SDS011;66341;52.418;7.382;2023-05-07T04:37:44;2.92;;;2.92;;
73154;SDS011;66341;52.418;7.382;2023-05-07T04:40:10;2.74;;;2.74;;
73154;SDS011;66341;52.418;7.382;2023-05-07T04:42:36;2.77;;;2.77;;
73154;SDS011;66341;52.418;7.382;2023-05-07T04:45:02;2.69;;;2.69;;
73154;SDS011;66341;52.418;7.382;2023-05-07T04:47:27;2.69;;;2.69;;
73154;SDS011;66341;52.418;7.382;2023-05-07T04:49:53;2.80;;;2.80;;
73154;SDS011;66341;52.418;7.382;2023-05-07T04:52:19;2.70;;;2.70;;
73154;SDS011;66341;52.418;7.382;2023-05-07T04:54:44;2.78;;;2.78;;
73154;SDS011;66341;52.418;7.382;2023-05-07T04:57:10;2.93;;;2.93;;
73154;SDS011;66341;52.418;7.382;2023-05-07T04:59:35;3.03;;;3.03;;
73154;SDS011;66341;52.418;7.382;2023-05-07T05:02:01;2.94;;;2.94;;
73154;SDS011;66341;52.418;7.382;2023-05-07T05:04:27;2.83;;;2.83;;
73154;SDS011;66341;52.418;7.382;2023-05-07T05:06:53;2.86;;;2.86;;
73154;SDS011;66341;52.418;7.382;2023-05-07T05:09:18;3.00;;;3.00;;
73154;SDS011;66341;52.418;7.382;2023-05-07T05:11:44;2.86;;;2.86;;
73154;SDS011;66341;52.418;7.382;2023-05-07T05:14:10;2.74;;;2.74;;
73154;SDS011;66341;52.418;7.382;2023-05-07T05:16:36;2.93;;;2.93;;
73154;SDS011;66341;52.418;7.382;2023-05-07T05:19:01;3.08;;;3.08;;
73154;SDS011;66341;52.418;7.382;2023-05-07T05:21:28;3.74;;;3.74;;
73154;SDS011;66341;52.418;7.382;2023-05-07T05:23:53;4.84;;;4.84;;
73154;SDS011;66341;52.418;7.382;2023-05-07T05:26:19;6.52;;;6.52;;
73154;SDS011;66341;52.418;7.382;2023-05-07T05:28:46;5.37;;;5.37;;
73154;SDS011;66341;52.418;7.382;2023-05-07T05:31:12;4.82;;;4.82;;
73154;SDS011;66341;52.418;7.382;2023-05-07T05:33:39;4.32;;;4.32;;
73154;SDS011;66341;52.418;7.382;2023-05-07T05:36:05;4.46;;;4.46;;
73154;SDS011;66341;52.418;7.382;2023-05-07T05:38:31;4.88;;;4.88;;
73154;SDS011;66341;52.418;7.382;2023-05-07T05:40:56;4.97;;;4.97;;
73154;SDS011;66341;52.418;7.382;2023-05-07T05:43:22;4.77;;;4.77;;
73154;SDS011;66341;52.418;7.382;2023-05-07T05:45:48;5.23;;;5.23;;
73154;SDS011;66341;52.418;7.382;2023-05-07T05:48:14;5.46;;;5.46;;
73154;SDS011;66341;52.418;7.382;2023-05-07T05:50:41;5.43;;;5.41;;
73154;SDS011;66341;52.418;7.382;2023-05-07T05:53:07;5.52;;;5.52;;
73154;SDS011;66341;52.418;7.382;2023-05-07T05:55:33;5.90;;;5.90;;
73154;SDS011;66341;52.418;7.382;2023-05-07T05:58:00;5.71;;;5.71;;
73154;SDS011;66341;52.418;7.382;2023-05-07T06:00:26;6.13;;;6.13;;
73154;SDS011;66341;52.418;7.382;2023-05-07T06:02:51;5.30;;;5.30;;
73154;SDS011;66341;52.418;7.382;2023-05-07T06:05:17;5.71;;;5.71;;
73154;SDS011;66341;52.418;7.382;2023-05-07T06:07:43;6.00;;;6.00;;
73154;SDS011;66341;52.418;7.382;2023-05-07T06:10:08;6.06;;;6.06;;
73154;SDS011;66341;52.418;7.382;2023-05-07T06:12:34;6.36;;;6.36;;
73154;SDS011;66341;52.418;7.382;2023-05-07T06:15:00;6.21;;;6.21;;
73154;SDS011;66341;52.418;7.382;2023-05-07T06:17:26;7.44;;;7.44;;
73154;SDS011;66341;52.418;7.382;2023-05-07T06:19:52;7.31;;;7.31;;
73154;SDS011;66341;52.418;7.382;2023-05-07T06:22:18;6.81;;;6.81;;
73154;SDS011;66341;52.418;7.382;2023-05-07T06:24:44;6.39;;;6.39;;
73154;SDS011;66341;52.418;7.382;2023-05-07T06:27:09;6.27;;;6.27;;
73154;SDS011;66341;52.418;7.382;2023-05-07T06:29:35;6.22;;;6.22;;
73154;SDS011;66341;52.418;7.382;2023-05-07T06:32:11;6.58;;;6.58;;
73154;SDS011;66341;52.418;7.382;2023-05-07T06:34:37;6.55;;;6.55;;
73154;SDS011;66341;52.418;7.382;2023-05-07T06:37:03;6.60;;;6.60;;
73154;SDS011;66341;52.418;7.382;2023-05-07T06:39:28;6.97;;;6.97;;
73154;SDS011;66341;52.418;7.382;2023-05-07T06:41:54;6.73;;;6.73;;
73154;SDS011;66341;52.418;7.382;2023-05-07T06:44:20;7.00;;;7.00;;
73154;SDS011;66341;52.418;7.382;2023-05-07T06:46:45;6.78;;;6.78;;
73154;SDS011;66341;52.418;7.382;2023-05-07T06:49:14;6.90;;;6.90;;
73154;SDS011;66341;52.418;7.382;2023-05-07T06:51:40;7.06;;;7.06;;
73154;SDS011;66341;52.418;7.382;2023-05-07T06:54:06;6.93;;;6.93;;
73154;SDS011;66341;52.418;7.382;2023-05-07T06:56:32;6.78;;;6.78;;
73154;SDS011;66341;52.418;7.382;2023-05-07T06:58:59;6.79;;;6.79;;
73154;SDS011;66341;52.418;7.382;2023-05-07T07:01:25;6.99;;;6.99;;
73154;SDS011;66341;52.418;7.382;2023-05-07T07:03:51;7.03;;;7.03;;
73154;SDS011;66341;52.418;7.382;2023-05-07T07:06:17;6.97;;;6.97;;
73154;SDS011;66341;52.418;7.382;2023-05-07T07:08:42;6.87;;;6.87;;
73154;SDS011;66341;52.418;7.382;2023-05-07T07:11:08;7.77;;;7.77;;
73154;SDS011;66341;52.418;7.382;2023-05-07T07:13:34;8.29;;;8.29;;
73154;SDS011;66341;52.418;7.382;2023-05-07T07:15:59;8.03;;;8.03;;
73154;SDS011;66341;52.418;7.382;2023-05-07T07:18:25;7.99;;;7.99;;
73154;SDS011;66341;52.418;7.382;2023-05-07T07:20:51;7.53;;;7.53;;
73154;SDS011;66341;52.418;7.382;2023-05-07T07:23:16;8.22;;;8.22;;
73154;SDS011;66341;52.418;7.382;2023-05-07T07:25:42;7.74;;;7.74;;
73154;SDS011;66341;52.418;7.382;2023-05-07T07:28:07;7.47;;;7.47;;
73154;SDS011;66341;52.418;7.382;2023-05-07T07:30:33;7.30;;;7.30;;
73154;SDS011;66341;52.418;7.382;2023-05-07T07:32:59;7.71;;;7.71;;
73154;SDS011;66341;52.418;7.382;2023-05-07T07:35:28;7.67;;;7.67;;
73154;SDS011;66341;52.418;7.382;2023-05-07T07:37:54;7.62;;;7.62;;
73154;SDS011;66341;52.418;7.382;2023-05-07T07:40:20;7.43;;;7.43;;
73154;SDS011;66341;52.418;7.382;2023-05-07T07:42:45;7.30;;;7.30;;
73154;SDS011;66341;52.418;7.382;2023-05-07T07:45:11;6.96;;;6.96;;
73154;SDS011;66341;52.418;7.382;2023-05-07T07:47:37;7.33;;;7.33;;
73154;SDS011;66341;52.418;7.382;2023-05-07T07:50:03;7.55;;;7.55;;
73154;SDS011;66341;52.418;7.382;2023-05-07T07:52:29;7.19;;;7.19;;
73154;SDS011;66341;52.418;7.382;2023-05-07T07:54:54;7.45;;;7.45;;
73154;SDS011;66341;52.418;7.382;2023-05-07T07:57:20;7.58;;;7.58;;
73154;SDS011;66341;52.418;7.382;2023-05-07T07:59:46;7.63;;;7.63;;
73154;SDS011;66341;52.418;7.382;2023-05-07T08:02:11;7.85;;;7.85;;
73154;SDS011;66341;52.418;7.382;2023-05-07T08:04:37;7.85;;;7.85;;
73154;SDS011;66341;52.418;7.382;2023-05-07T08:07:03;8.12;;;8.12;;
73154;SDS011;66341;52.418;7.382;2023-05-07T08:09:28;7.81;;;7.81;;
73154;SDS011;66341;52.418;7.382;2023-05-07T08:11:54;7.68;;;7.68;;
73154;SDS011;66341;52.418;7.382;2023-05-07T08:14:20;7.61;;;7.61;;
73154;SDS011;66341;52.418;7.382;2023-05-07T08:16:45;7.40;;;7.40;;
73154;SDS011;66341;52.418;7.382;2023-05-07T08:19:11;7.52;;;7.52;;
73154;SDS011;66341;52.418;7.382;2023-05-07T08:21:39;7.16;;;7.16;;
73154;SDS011;66341;52.418;7.382;2023-05-07T08:24:06;7.10;;;7.10;;
73154;SDS011;66341;52.418;7.382;2023-05-07T08:26:31;7.87;;;7.87;;
73154;SDS011;66341;52.418;7.382;2023-05-07T08:28:57;8.01;;;8.01;;
73154;SDS011;66341;52.418;7.382;2023-05-07T08:31:23;7.47;;;7.47;;
73154;SDS011;66341;52.418;7.382;2023-05-07T08:33:48;6.91;;;6.91;;
73154;SDS011;66341;52.418;7.382;2023-05-07T08:36:14;7.48;;;7.48;;
73154;SDS011;66341;52.418;7.382;2023-05-07T08:38:39;7.36;;;7.36;;
73154;SDS011;66341;52.418;7.382;2023-05-07T08:41:09;7.77;;;7.77;;
73154;SDS011;66341;52.418;7.382;2023-05-07T08:43:35;7.60;;;7.60;;
73154;SDS011;66341;52.418;7.382;2023-05-07T08:46:01;7.58;;;7.58;;
73154;SDS011;66341;52.418;7.382;2023-05-07T08:48:27;7.08;;;7.08;;
73154;SDS011;66341;52.418;7.382;2023-05-07T08:50:55;6.95;;;6.95;;
73154;SDS011;66341;52.418;7.382;2023-05-07T08:53:20;7.12;;;7.12;;
73154;SDS011;66341;52.418;7.382;2023-05-07T08:55:46;7.79;;;7.79;;
73154;SDS011;66341;52.418;7.382;2023-05-07T08:58:13;8.04;;;8.04;;
73154;SDS011;66341;52.418;7.382;2023-05-07T09:00:39;7.27;;;7.27;;
73154;SDS011;66341;52.418;7.382;2023-05-07T09:03:05;7.28;;;7.28;;
73154;SDS011;66341;52.418;7.382;2023-05-07T09:05:31;7.07;;;7.07;;
73154;SDS011;66341;52.418;7.382;2023-05-07T09:07:59;7.01;;;7.01;;
73154;SDS011;66341;52.418;7.382;2023-05-07T09:10:25;6.92;;;6.92;;
73154;SDS011;66341;52.418;7.382;2023-05-07T09:12:51;6.83;;;6.83;;
73154;SDS011;66341;52.418;7.382;2023-05-07T09:15:17;6.96;;;6.96;;
73154;SDS011;66341;52.418;7.382;2023-05-07T09:17:43;6.74;;;6.74;;
73154;SDS011;66341;52.418;7.382;2023-05-07T09:20:09;6.50;;;6.50;;
73154;SDS011;66341;52.418;7.382;2023-05-07T09:22:38;6.32;;;6.32;;
73154;SDS011;66341;52.418;7.382;2023-05-07T09:25:05;6.60;;;6.60;;
73154;SDS011;66341;52.418;7.382;2023-05-07T09:27:31;6.54;;;6.54;;
73154;SDS011;66341;52.418;7.382;2023-05-07T09:29:57;6.78;;;6.78;;
73154;SDS011;66341;52.418;7.382;2023-05-07T09:32:22;6.74;;;6.74;;
73154;SDS011;66341;52.418;7.382;2023-05-07T09:34:50;6.82;;;6.82;;
73154;SDS011;66341;52.418;7.382;2023-05-07T09:37:15;6.49;;;6.49;;
73154;SDS011;66341;52.418;7.382;2023-05-07T09:39:42;6.60;;;6.60;;
73154;SDS011;66341;52.418;7.382;2023-05-07T09:42:08;6.12;;;6.12;;
73154;SDS011;66341;52.418;7.382;2023-05-07T09:44:34;6.60;;;6.60;;
73154;SDS011;66341;52.418;7.382;2023-05-07T09:47:00;6.20;;;6.20;;
73154;SDS011;66341;52.418;7.382;2023-05-07T09:49:29;6.16;;;6.16;;
73154;SDS011;66341;52.418;7.382;2023-05-07T09:51:56;6.19;;;6.19;;
73154;SDS011;66341;52.418;7.382;2023-05-07T09:54:24;6.00;;;6.00;;
73154;SDS011;66341;52.418;7.382;2023-05-07T09:56:50;6.20;;;6.20;;
73154;SDS011;66341;52.418;7.382;2023-05-07T09:59:17;6.40;;;6.40;;
73154;SDS011;66341;52.418;7.382;2023-05-07T10:01:44;5.77;;;5.77;;
73154;SDS011;66341;52.418;7.382;2023-05-07T10:04:10;5.88;;;5.88;;
73154;SDS011;66341;52.418;7.382;2023-05-07T10:06:37;5.98;;;5.98;;
73154;SDS011;66341;52.418;7.382;2023-05-07T10:09:03;6.16;;;6.16;;
73154;SDS011;66341;52.418;7.382;2023-05-07T10:11:36;5.92;;;5.92;;
73154;SDS011;66341;52.418;7.382;2023-05-07T10:14:02;6.12;;;6.12;;
73154;SDS011;66341;52.418;7.382;2023-05-07T10:16:34;5.74;;;5.74;;
73154;SDS011;66341;52.418;7.382;2023-05-07T10:19:04;5.85;;;5.85;;
73154;SDS011;66341;52.418;7.382;2023-05-07T10:21:31;5.37;;;5.37;;
73154;SDS011;66341;52.418;7.382;2023-05-07T10:24:05;5.53;;;5.53;;
73154;SDS011;66341;52.418;7.382;2023-05-07T10:26:39;5.65;;;5.65;;
73154;SDS011;66341;52.418;7.382;2023-05-07T10:29:12;5.48;;;5.48;;
73154;SDS011;66341;52.418;7.382;2023-05-07T10:34:17;5.36;;;5.36;;
73154;SDS011;66341;52.418;7.382;2023-05-07T10:36:46;5.55;;;5.55;;
73154;SDS011;66341;52.418;7.382;2023-05-07T10:39:13;5.45;;;5.45;;
73154;SDS011;66341;52.418;7.382;2023-05-07T10:41:39;5.72;;;5.72;;
73154;SDS011;66341;52.418;7.382;2023-05-07T10:44:04;5.66;;;5.66;;
73154;SDS011;66341;52.418;7.382;2023-05-07T10:46:31;5.59;;;5.59;;
73154;SDS011;66341;52.418;7.382;2023-05-07T10:51:26;5.28;;;5.28;;
73154;SDS011;66341;52.418;7.382;2023-05-07T10:56:42;5.43;;;5.43;;
73154;SDS011;66341;52.418;7.382;2023-05-07T11:01:52;5.50;;;5.50;;
73154;SDS011;66341;52.418;7.382;2023-05-07T11:04:19;5.25;;;5.25;;
73154;SDS011;66341;52.418;7.382;2023-05-07T11:07:16;5.04;;;5.04;;
73154;SDS011;66341;52.418;7.382;2023-05-07T11:12:16;5.13;;;5.13;;
73154;SDS011;66341;52.418;7.382;2023-05-07T11:14:43;5.01;;;5.01;;
73154;SDS011;66341;52.418;7.382;2023-05-07T11:17:09;5.29;;;5.29;;
73154;SDS011;66341;52.418;7.382;2023-05-07T11:19:54;5.32;;;5.32;;
73154;SDS011;66341;52.418;7.382;2023-05-07T11:22:39;5.25;;;5.25;;
73154;SDS011;66341;52.418;7.382;2023-05-07T11:25:07;5.21;;;5.21;;
73154;SDS011;66341;52.418;7.382;2023-05-07T11:27:33;4.90;;;4.90;;
73154;SDS011;66341;52.418;7.382;2023-05-07T11:29:58;4.91;;;4.91;;
73154;SDS011;66341;52.418;7.382;2023-05-07T11:32:30;5.13;;;5.13;;
73154;SDS011;66341;52.418;7.382;2023-05-07T11:34:57;5.22;;;5.22;;
73154;SDS011;66341;52.418;7.382;2023-05-07T11:37:24;5.38;;;5.38;;
73154;SDS011;66341;52.418;7.382;2023-05-07T11:40:01;5.61;;;5.61;;
73154;SDS011;66341;52.418;7.382;2023-05-07T11:42:28;5.20;;;5.20;;
73154;SDS011;66341;52.418;7.382;2023-05-07T11:44:54;5.25;;;5.25;;
73154;SDS011;66341;52.418;7.382;2023-05-07T11:47:20;5.05;;;5.05;;
73154;SDS011;66341;52.418;7.382;2023-05-07T11:49:47;5.34;;;5.34;;
73154;SDS011;66341;52.418;7.382;2023-05-07T11:52:14;5.43;;;5.43;;
73154;SDS011;66341;52.418;7.382;2023-05-07T11:54:40;5.32;;;5.32;;
73154;SDS011;66341;52.418;7.382;2023-05-07T11:57:05;5.09;;;5.09;;
73154;SDS011;66341;52.418;7.382;2023-05-07T11:59:41;5.20;;;5.20;;
73154;SDS011;66341;52.418;7.382;2023-05-07T12:02:16;5.03;;;5.03;;
73154;SDS011;66341;52.418;7.382;2023-05-07T12:04:42;5.31;;;5.31;;
73154;SDS011;66341;52.418;7.382;2023-05-07T12:07:12;4.81;;;4.81;;
73154;SDS011;66341;52.418;7.382;2023-05-07T12:09:43;5.21;;;5.21;;
73154;SDS011;66341;52.418;7.382;2023-05-07T12:12:09;4.82;;;4.82;;
73154;SDS011;66341;52.418;7.382;2023-05-07T12:14:39;4.88;;;4.88;;
73154;SDS011;66341;52.418;7.382;2023-05-07T12:17:05;5.02;;;5.02;;
73154;SDS011;66341;52.418;7.382;2023-05-07T12:19:33;5.03;;;5.03;;
73154;SDS011;66341;52.418;7.382;2023-05-07T12:21:59;4.67;;;4.67;;
73154;SDS011;66341;52.418;7.382;2023-05-07T12:24:25;4.71;;;4.71;;
73154;SDS011;66341;52.418;7.382;2023-05-07T12:26:51;4.53;;;4.53;;
73154;SDS011;66341;52.418;7.382;2023-05-07T12:29:21;4.52;;;4.52;;
73154;SDS011;66341;52.418;7.382;2023-05-07T12:31:47;4.37;;;4.37;;
73154;SDS011;66341;52.418;7.382;2023-05-07T12:34:12;4.52;;;4.52;;
73154;SDS011;66341;52.418;7.382;2023-05-07T12:36:38;4.36;;;4.36;;
73154;SDS011;66341;52.418;7.382;2023-05-07T12:39:05;4.41;;;4.41;;
73154;SDS011;66341;52.418;7.382;2023-05-07T12:41:34;4.51;;;4.51;;
73154;SDS011;66341;52.418;7.382;2023-05-07T12:44:03;4.83;;;4.83;;
73154;SDS011;66341;52.418;7.382;2023-05-07T12:46:30;4.56;;;4.56;;
73154;SDS011;66341;52.418;7.382;2023-05-07T12:48:56;4.64;;;4.64;;
73154;SDS011;66341;52.418;7.382;2023-05-07T12:51:22;5.85;;;5.85;;
73154;SDS011;66341;52.418;7.382;2023-05-07T12:53:47;8.02;;;8.02;;
73154;SDS011;66341;52.418;7.382;2023-05-07T12:56:15;7.19;;;7.19;;
73154;SDS011;66341;52.418;7.382;2023-05-07T12:58:41;5.57;;;5.57;;
73154;SDS011;66341;52.418;7.382;2023-05-07T13:01:07;5.00;;;5.00;;
73154;SDS011;66341;52.418;7.382;2023-05-07T13:03:35;4.58;;;4.58;;
73154;SDS011;66341;52.418;7.382;2023-05-07T13:06:05;4.83;;;4.83;;
73154;SDS011;66341;52.418;7.382;2023-05-07T13:08:33;5.11;;;5.11;;
73154;SDS011;66341;52.418;7.382;2023-05-07T13:11:01;4.76;;;4.76;;
73154;SDS011;66341;52.418;7.382;2023-05-07T13:13:30;4.93;;;4.93;;
73154;SDS011;66341;52.418;7.382;2023-05-07T13:15:57;5.03;;;5.03;;
73154;SDS011;66341;52.418;7.382;2023-05-07T13:18:24;4.86;;;4.86;;
73154;SDS011;66341;52.418;7.382;2023-05-07T13:20:51;4.96;;;4.96;;
73154;SDS011;66341;52.418;7.382;2023-05-07T13:23:18;4.68;;;4.68;;
73154;SDS011;66341;52.418;7.382;2023-05-07T13:25:44;4.48;;;4.48;;
73154;SDS011;66341;52.418;7.382;2023-05-07T13:28:09;4.51;;;4.51;;
73154;SDS011;66341;52.418;7.382;2023-05-07T13:30:35;4.64;;;4.64;;
73154;SDS011;66341;52.418;7.382;2023-05-07T13:33:01;4.75;;;4.75;;
73154;SDS011;66341;52.418;7.382;2023-05-07T13:35:30;4.52;;;4.52;;
73154;SDS011;66341;52.418;7.382;2023-05-07T13:37:56;4.35;;;4.35;;
73154;SDS011;66341;52.418;7.382;2023-05-07T13:40:22;4.75;;;4.75;;
73154;SDS011;66341;52.418;7.382;2023-05-07T13:42:48;4.48;;;4.48;;
73154;SDS011;66341;52.418;7.382;2023-05-07T13:45:14;4.55;;;4.55;;
73154;SDS011;66341;52.418;7.382;2023-05-07T13:47:40;4.67;;;4.67;;
73154;SDS011;66341;52.418;7.382;2023-05-07T13:50:06;4.65;;;4.65;;
73154;SDS011;66341;52.418;7.382;2023-05-07T13:52:32;4.76;;;4.76;;
73154;SDS011;66341;52.418;7.382;2023-05-07T13:54:58;4.45;;;4.45;;
73154;SDS011;66341;52.418;7.382;2023-05-07T13:57:24;4.52;;;4.52;;
73154;SDS011;66341;52.418;7.382;2023-05-07T13:59:50;4.85;;;4.85;;
73154;SDS011;66341;52.418;7.382;2023-05-07T14:02:16;4.50;;;4.50;;
73154;SDS011;66341;52.418;7.382;2023-05-07T14:04:41;4.25;;;4.25;;
73154;SDS011;66341;52.418;7.382;2023-05-07T14:07:07;4.36;;;4.36;;
73154;SDS011;66341;52.418;7.382;2023-05-07T14:09:33;4.61;;;4.61;;
73154;SDS011;66341;52.418;7.382;2023-05-07T14:11:58;4.48;;;4.48;;
73154;SDS011;66341;52.418;7.382;2023-05-07T14:14:24;4.56;;;4.56;;
73154;SDS011;66341;52.418;7.382;2023-05-07T14:16:49;4.38;;;4.38;;
73154;SDS011;66341;52.418;7.382;2023-05-07T14:19:15;4.33;;;4.33;;
73154;SDS011;66341;52.418;7.382;2023-05-07T14:21:41;4.50;;;4.50;;
73154;SDS011;66341;52.418;7.382;2023-05-07T14:24:06;4.53;;;4.53;;
73154;SDS011;66341;52.418;7.382;2023-05-07T14:26:34;4.60;;;4.60;;
73154;SDS011;66341;52.418;7.382;2023-05-07T14:29:00;4.18;;;4.18;;
73154;SDS011;66341;52.418;7.382;2023-05-07T14:31:25;4.38;;;4.38;;
73154;SDS011;66341;52.418;7.382;2023-05-07T14:33:51;4.52;;;4.52;;
73154;SDS011;66341;52.418;7.382;2023-05-07T14:36:17;4.26;;;4.26;;
73154;SDS011;66341;52.418;7.382;2023-05-07T14:38:45;4.38;;;4.38;;
73154;SDS011;66341;52.418;7.382;2023-05-07T14:41:11;4.48;;;4.48;;
73154;SDS011;66341;52.418;7.382;2023-05-07T14:43:37;4.39;;;4.39;;
73154;SDS011;66341;52.418;7.382;2023-05-07T14:46:03;4.01;;;4.01;;
73154;SDS011;66341;52.418;7.382;2023-05-07T14:48:28;4.18;;;4.18;;
73154;SDS011;66341;52.418;7.382;2023-05-07T14:50:54;4.20;;;4.20;;
73154;SDS011;66341;52.418;7.382;2023-05-07T14:53:20;4.02;;;4.02;;
73154;SDS011;66341;52.418;7.382;2023-05-07T14:55:47;4.13;;;4.13;;
73154;SDS011;66341;52.418;7.382;2023-05-07T14:58:13;3.93;;;3.93;;
73154;SDS011;66341;52.418;7.382;2023-05-07T15:00:38;4.12;;;4.12;;